sensor_id;sensor_type;location;lat;lon;timestamp;temperature;humidity
44513;DHT22;30219;50.588;9.504;2022-10-31T00:00:48;9.80;99.90
44513;DHT22;30219;50.588;9.504;2022-10-31T00:03:14;9.70;99.90
44513;DHT22;30219;50.588;9.504;2022-10-31T00:05:42;9.60;99.90
44513;DHT22;30219;50.588;9.504;2022-10-31T00:08:08;9.60;99.90
44513;DHT22;30219;50.588;9.504;2022-10-31T00:10:33;9.50;99.90
44513;DHT22;30219;50.588;9.504;2022-10-31T00:13:02;9.50;99.90
44513;DHT22;30219;50.588;9.504;2022-10-31T00:15:27;9.60;99.90
44513;DHT22;30219;50.588;9.504;2022-10-31T00:17:53;9.60;99.90
44513;DHT22;30219;50.588;9.504;2022-10-31T00:20:18;9.60;99.90
44513;DHT22;30219;50.588;9.504;2022-10-31T00:22:44;9.50;99.90
44513;DHT22;30219;50.588;9.504;2022-10-31T00:25:09;9.50;99.90
44513;DHT22;30219;50.588;9.504;2022-10-31T00:27:35;9.50;99.90
44513;DHT22;30219;50.588;9.504;2022-10-31T00:30:00;9.50;99.90
44513;DHT22;30219;50.588;9.504;2022-10-31T00:32:28;9.50;99.90
44513;DHT22;30219;50.588;9.504;2022-10-31T00:34:55;9.60;99.90
44513;DHT22;30219;50.588;9.504;2022-10-31T00:37:20;9.70;99.90
44513;DHT22;30219;50.588;9.504;2022-10-31T00:39:46;9.60;99.90
44513;DHT22;30219;50.588;9.504;2022-10-31T00:42:14;9.50;99.90
44513;DHT22;30219;50.588;9.504;2022-10-31T00:44:40;9.40;99.90
44513;DHT22;30219;50.588;9.504;2022-10-31T00:47:05;9.30;99.90
44513;DHT22;30219;50.588;9.504;2022-10-31T00:49:31;9.10;99.90
44513;DHT22;30219;50.588;9.504;2022-10-31T00:51:56;9.00;99.90
44513;DHT22;30219;50.588;9.504;2022-10-31T00:54:22;8.90;99.90
44513;DHT22;30219;50.588;9.504;2022-10-31T00:56:47;8.90;99.90
44513;DHT22;30219;50.588;9.504;2022-10-31T00:59:13;8.90;99.90
44513;DHT22;30219;50.588;9.504;2022-10-31T01:01:38;8.90;99.90
44513;DHT22;30219;50.588;9.504;2022-10-31T01:04:04;8.90;99.90
44513;DHT22;30219;50.588;9.504;2022-10-31T01:06:30;8.90;99.90
44513;DHT22;30219;50.588;9.504;2022-10-31T01:08:55;8.80;99.90
44513;DHT22;30219;50.588;9.504;2022-10-31T01:11:22;8.70;99.90
44513;DHT22;30219;50.588;9.504;2022-10-31T01:13:51;8.60;99.90
44513;DHT22;30219;50.588;9.504;2022-10-31T01:16:19;8.60;99.90
44513;DHT22;30219;50.588;9.504;2022-10-31T01:18:45;8.60;99.90
44513;DHT22;30219;50.588;9.504;2022-10-31T01:21:15;8.70;99.90
44513;DHT22;30219;50.588;9.504;2022-10-31T01:23:41;8.50;99.90
44513;DHT22;30219;50.588;9.504;2022-10-31T01:26:10;8.50;99.90
44513;DHT22;30219;50.588;9.504;2022-10-31T01:28:38;8.50;99.90
44513;DHT22;30219;50.588;9.504;2022-10-31T01:31:08;8.60;99.90
44513;DHT22;30219;50.588;9.504;2022-10-31T01:33:35;8.60;99.90
44513;DHT22;30219;50.588;9.504;2022-10-31T01:36:01;8.60;99.90
44513;DHT22;30219;50.588;9.504;2022-10-31T01:38:36;8.60;99.90
44513;DHT22;30219;50.588;9.504;2022-10-31T01:41:01;8.60;99.90
44513;DHT22;30219;50.588;9.504;2022-10-31T01:43:42;8.60;99.90
44513;DHT22;30219;50.588;9.504;2022-10-31T01:46:08;8.60;99.90
44513;DHT22;30219;50.588;9.504;2022-10-31T01:48:34;8.60;99.90
44513;DHT22;30219;50.588;9.504;2022-10-31T01:51:00;8.60;99.90
44513;DHT22;30219;50.588;9.504;2022-10-31T01:53:26;8.70;99.90
44513;DHT22;30219;50.588;9.504;2022-10-31T01:55:51;8.70;99.90
44513;DHT22;30219;50.588;9.504;2022-10-31T01:58:23;8.70;99.90
44513;DHT22;30219;50.588;9.504;2022-10-31T02:00:53;8.60;99.90
44513;DHT22;30219;50.588;9.504;2022-10-31T02:03:22;8.60;99.90
44513;DHT22;30219;50.588;9.504;2022-10-31T02:05:49;8.60;99.90
44513;DHT22;30219;50.588;9.504;2022-10-31T02:08:23;8.60;99.90
44513;DHT22;30219;50.588;9.504;2022-10-31T02:10:52;8.50;99.90
44513;DHT22;30219;50.588;9.504;2022-10-31T02:13:18;8.50;99.90
44513;DHT22;30219;50.588;9.504;2022-10-31T02:15:48;8.40;99.90
44513;DHT22;30219;50.588;9.504;2022-10-31T02:18:14;8.30;99.90
44513;DHT22;30219;50.588;9.504;2022-10-31T02:20:54;8.30;99.90
44513;DHT22;30219;50.588;9.504;2022-10-31T02:26:43;8.30;99.90
44513;DHT22;30219;50.588;9.504;2022-10-31T02:37:34;8.20;99.90
44513;DHT22;30219;50.588;9.504;2022-10-31T02:40:17;8.10;99.90
44513;DHT22;30219;50.588;9.504;2022-10-31T02:43:06;8.10;99.90
44513;DHT22;30219;50.588;9.504;2022-10-31T02:45:39;8.10;99.90
44513;DHT22;30219;50.588;9.504;2022-10-31T02:48:12;8.10;99.90
44513;DHT22;30219;50.588;9.504;2022-10-31T02:50:40;8.10;99.90
44513;DHT22;30219;50.588;9.504;2022-10-31T02:53:07;8.10;99.90
44513;DHT22;30219;50.588;9.504;2022-10-31T02:58:02;8.00;99.90
44513;DHT22;30219;50.588;9.504;2022-10-31T03:03:17;8.00;99.90
44513;DHT22;30219;50.588;9.504;2022-10-31T03:06:10;8.00;99.90
44513;DHT22;30219;50.588;9.504;2022-10-31T03:08:48;8.00;99.90
44513;DHT22;30219;50.588;9.504;2022-10-31T03:11:17;8.10;99.90
44513;DHT22;30219;50.588;9.504;2022-10-31T03:16:50;8.20;99.90
44513;DHT22;30219;50.588;9.504;2022-10-31T03:19:28;8.20;99.90
44513;DHT22;30219;50.588;9.504;2022-10-31T03:22:00;8.20;99.90
44513;DHT22;30219;50.588;9.504;2022-10-31T03:24:31;8.30;99.90
44513;DHT22;30219;50.588;9.504;2022-10-31T03:26:59;8.30;99.90
44513;DHT22;30219;50.588;9.504;2022-10-31T03:29:28;8.40;99.90
44513;DHT22;30219;50.588;9.504;2022-10-31T03:32:00;8.30;99.90
44513;DHT22;30219;50.588;9.504;2022-10-31T03:34:28;8.40;99.90
44513;DHT22;30219;50.588;9.504;2022-10-31T03:36:57;8.50;99.90
44513;DHT22;30219;50.588;9.504;2022-10-31T03:39:25;8.40;99.90
44513;DHT22;30219;50.588;9.504;2022-10-31T03:42:00;8.30;99.90
44513;DHT22;30219;50.588;9.504;2022-10-31T03:44:29;8.20;99.90
44513;DHT22;30219;50.588;9.504;2022-10-31T03:46:55;8.20;99.90
44513;DHT22;30219;50.588;9.504;2022-10-31T03:49:21;8.20;99.90
44513;DHT22;30219;50.588;9.504;2022-10-31T03:54:46;8.20;99.90
44513;DHT22;30219;50.588;9.504;2022-10-31T03:57:23;8.10;99.90
44513;DHT22;30219;50.588;9.504;2022-10-31T04:00:08;8.00;99.90
44513;DHT22;30219;50.588;9.504;2022-10-31T04:02:38;7.90;99.90
44513;DHT22;30219;50.588;9.504;2022-10-31T04:05:06;7.90;99.90
44513;DHT22;30219;50.588;9.504;2022-10-31T04:07:43;7.90;99.90
44513;DHT22;30219;50.588;9.504;2022-10-31T04:10:13;7.80;99.90
44513;DHT22;30219;50.588;9.504;2022-10-31T04:12:39;7.80;99.90
44513;DHT22;30219;50.588;9.504;2022-10-31T04:15:07;7.90;99.90
44513;DHT22;30219;50.588;9.504;2022-10-31T04:17:37;7.80;99.90
44513;DHT22;30219;50.588;9.504;2022-10-31T04:20:04;7.80;99.90
44513;DHT22;30219;50.588;9.504;2022-10-31T04:22:30;7.70;99.90
44513;DHT22;30219;50.588;9.504;2022-10-31T04:24:56;7.60;99.90
44513;DHT22;30219;50.588;9.504;2022-10-31T04:27:21;7.60;99.90
44513;DHT22;30219;50.588;9.504;2022-10-31T04:29:47;7.50;99.90
44513;DHT22;30219;50.588;9.504;2022-10-31T04:32:12;7.50;99.90
44513;DHT22;30219;50.588;9.504;2022-10-31T04:34:38;7.50;99.90
44513;DHT22;30219;50.588;9.504;2022-10-31T04:37:04;7.50;99.90
44513;DHT22;30219;50.588;9.504;2022-10-31T04:39:29;7.50;99.90
44513;DHT22;30219;50.588;9.504;2022-10-31T04:41:55;7.60;99.90
44513;DHT22;30219;50.588;9.504;2022-10-31T04:44:20;7.60;99.90
44513;DHT22;30219;50.588;9.504;2022-10-31T04:46:46;7.50;99.90
44513;DHT22;30219;50.588;9.504;2022-10-31T04:49:12;7.50;99.90
44513;DHT22;30219;50.588;9.504;2022-10-31T04:51:38;7.50;99.90
44513;DHT22;30219;50.588;9.504;2022-10-31T04:54:03;7.40;99.90
44513;DHT22;30219;50.588;9.504;2022-10-31T04:56:29;7.50;99.90
44513;DHT22;30219;50.588;9.504;2022-10-31T04:58:55;7.50;99.90
44513;DHT22;30219;50.588;9.504;2022-10-31T05:01:20;7.40;99.90
44513;DHT22;30219;50.588;9.504;2022-10-31T05:03:46;7.50;99.90
44513;DHT22;30219;50.588;9.504;2022-10-31T05:06:11;7.50;99.90
44513;DHT22;30219;50.588;9.504;2022-10-31T05:08:37;7.50;99.90
44513;DHT22;30219;50.588;9.504;2022-10-31T05:11:03;7.50;99.90
44513;DHT22;30219;50.588;9.504;2022-10-31T05:13:29;7.50;99.90
44513;DHT22;30219;50.588;9.504;2022-10-31T05:15:55;7.50;99.90
44513;DHT22;30219;50.588;9.504;2022-10-31T05:18:21;7.50;99.90
44513;DHT22;30219;50.588;9.504;2022-10-31T05:20:46;7.40;99.90
44513;DHT22;30219;50.588;9.504;2022-10-31T05:23:12;7.40;99.90
44513;DHT22;30219;50.588;9.504;2022-10-31T05:25:40;7.40;99.90
44513;DHT22;30219;50.588;9.504;2022-10-31T05:28:06;7.40;99.90
44513;DHT22;30219;50.588;9.504;2022-10-31T05:30:32;7.30;99.90
44513;DHT22;30219;50.588;9.504;2022-10-31T05:32:58;7.30;99.90
44513;DHT22;30219;50.588;9.504;2022-10-31T05:35:27;7.20;99.90
44513;DHT22;30219;50.588;9.504;2022-10-31T05:37:53;7.20;99.90
44513;DHT22;30219;50.588;9.504;2022-10-31T05:40:19;7.20;99.90
44513;DHT22;30219;50.588;9.504;2022-10-31T05:42:45;7.10;99.90
44513;DHT22;30219;50.588;9.504;2022-10-31T05:45:16;7.10;99.90
44513;DHT22;30219;50.588;9.504;2022-10-31T05:47:42;7.10;99.90
44513;DHT22;30219;50.588;9.504;2022-10-31T05:50:09;7.10;99.90
44513;DHT22;30219;50.588;9.504;2022-10-31T05:52:35;7.10;99.90
44513;DHT22;30219;50.588;9.504;2022-10-31T05:55:01;7.10;99.90
44513;DHT22;30219;50.588;9.504;2022-10-31T05:57:27;7.00;99.90
44513;DHT22;30219;50.588;9.504;2022-10-31T05:59:53;7.00;99.90
44513;DHT22;30219;50.588;9.504;2022-10-31T06:02:20;7.00;99.90
44513;DHT22;30219;50.588;9.504;2022-10-31T06:04:45;6.90;99.90
44513;DHT22;30219;50.588;9.504;2022-10-31T06:07:11;6.80;99.90
44513;DHT22;30219;50.588;9.504;2022-10-31T06:09:36;6.80;99.90
44513;DHT22;30219;50.588;9.504;2022-10-31T06:12:02;6.80;99.90
44513;DHT22;30219;50.588;9.504;2022-10-31T06:14:28;6.90;99.90
44513;DHT22;30219;50.588;9.504;2022-10-31T06:16:57;6.80;99.90
44513;DHT22;30219;50.588;9.504;2022-10-31T06:19:22;6.70;99.90
44513;DHT22;30219;50.588;9.504;2022-10-31T06:21:48;6.80;99.90
44513;DHT22;30219;50.588;9.504;2022-10-31T06:24:13;6.80;99.90
44513;DHT22;30219;50.588;9.504;2022-10-31T06:26:40;6.80;99.90
44513;DHT22;30219;50.588;9.504;2022-10-31T06:29:06;6.90;99.90
44513;DHT22;30219;50.588;9.504;2022-10-31T06:31:31;6.90;99.90
44513;DHT22;30219;50.588;9.504;2022-10-31T06:33:57;6.80;99.90
44513;DHT22;30219;50.588;9.504;2022-10-31T06:36:22;6.90;99.90
44513;DHT22;30219;50.588;9.504;2022-10-31T06:38:48;7.00;99.90
44513;DHT22;30219;50.588;9.504;2022-10-31T06:41:13;7.00;99.90
44513;DHT22;30219;50.588;9.504;2022-10-31T06:43:39;7.10;99.90
44513;DHT22;30219;50.588;9.504;2022-10-31T06:46:05;7.20;99.90
44513;DHT22;30219;50.588;9.504;2022-10-31T06:48:31;7.10;99.90
44513;DHT22;30219;50.588;9.504;2022-10-31T06:50:58;7.10;99.90
44513;DHT22;30219;50.588;9.504;2022-10-31T06:53:25;7.20;99.90
44513;DHT22;30219;50.588;9.504;2022-10-31T06:55:50;7.20;99.90
44513;DHT22;30219;50.588;9.504;2022-10-31T06:58:16;7.40;99.90
44513;DHT22;30219;50.588;9.504;2022-10-31T07:00:41;7.60;99.90
44513;DHT22;30219;50.588;9.504;2022-10-31T07:03:10;7.90;99.90
44513;DHT22;30219;50.588;9.504;2022-10-31T07:05:36;8.20;99.90
44513;DHT22;30219;50.588;9.504;2022-10-31T07:08:06;8.50;99.90
44513;DHT22;30219;50.588;9.504;2022-10-31T07:10:33;8.80;99.90
44513;DHT22;30219;50.588;9.504;2022-10-31T07:13:02;9.20;99.90
44513;DHT22;30219;50.588;9.504;2022-10-31T07:15:30;9.70;99.90
44513;DHT22;30219;50.588;9.504;2022-10-31T07:18:01;10.20;99.90
44513;DHT22;30219;50.588;9.504;2022-10-31T07:20:28;10.40;99.90
44513;DHT22;30219;50.588;9.504;2022-10-31T07:22:54;10.40;99.90
44513;DHT22;30219;50.588;9.504;2022-10-31T07:25:20;10.60;99.90
44513;DHT22;30219;50.588;9.504;2022-10-31T07:27:45;10.80;99.90
44513;DHT22;30219;50.588;9.504;2022-10-31T07:30:12;11.20;99.90
44513;DHT22;30219;50.588;9.504;2022-10-31T07:32:48;11.60;99.90
44513;DHT22;30219;50.588;9.504;2022-10-31T07:35:16;12.10;99.90
44513;DHT22;30219;50.588;9.504;2022-10-31T07:37:42;12.50;99.90
44513;DHT22;30219;50.588;9.504;2022-10-31T07:40:08;12.60;99.90
44513;DHT22;30219;50.588;9.504;2022-10-31T07:42:38;12.50;99.90
44513;DHT22;30219;50.588;9.504;2022-10-31T07:45:06;12.50;99.90
44513;DHT22;30219;50.588;9.504;2022-10-31T07:47:44;12.30;99.90
44513;DHT22;30219;50.588;9.504;2022-10-31T07:50:15;11.90;99.90
44513;DHT22;30219;50.588;9.504;2022-10-31T07:52:41;11.20;99.90
44513;DHT22;30219;50.588;9.504;2022-10-31T07:55:07;10.70;99.90
44513;DHT22;30219;50.588;9.504;2022-10-31T07:57:33;10.50;99.90
44513;DHT22;30219;50.588;9.504;2022-10-31T07:59:58;10.50;99.90
44513;DHT22;30219;50.588;9.504;2022-10-31T08:02:24;10.50;99.90
44513;DHT22;30219;50.588;9.504;2022-10-31T08:04:50;10.60;99.90
44513;DHT22;30219;50.588;9.504;2022-10-31T08:07:16;10.70;99.90
44513;DHT22;30219;50.588;9.504;2022-10-31T08:09:44;10.70;99.90
44513;DHT22;30219;50.588;9.504;2022-10-31T08:12:11;10.80;99.90
44513;DHT22;30219;50.588;9.504;2022-10-31T08:14:37;10.90;99.90
44513;DHT22;30219;50.588;9.504;2022-10-31T08:17:02;11.00;99.90
44513;DHT22;30219;50.588;9.504;2022-10-31T08:19:28;11.20;99.90
44513;DHT22;30219;50.588;9.504;2022-10-31T08:21:54;11.40;99.90
44513;DHT22;30219;50.588;9.504;2022-10-31T08:24:21;11.50;99.90
44513;DHT22;30219;50.588;9.504;2022-10-31T08:26:47;11.60;99.90
44513;DHT22;30219;50.588;9.504;2022-10-31T08:29:12;11.70;99.90
44513;DHT22;30219;50.588;9.504;2022-10-31T08:31:38;11.90;99.90
44513;DHT22;30219;50.588;9.504;2022-10-31T08:34:04;12.00;99.90
44513;DHT22;30219;50.588;9.504;2022-10-31T08:36:29;12.20;99.90
44513;DHT22;30219;50.588;9.504;2022-10-31T08:38:55;12.50;99.90
44513;DHT22;30219;50.588;9.504;2022-10-31T08:41:21;13.00;99.90
44513;DHT22;30219;50.588;9.504;2022-10-31T08:43:47;13.20;99.90
44513;DHT22;30219;50.588;9.504;2022-10-31T08:46:12;13.40;99.90
44513;DHT22;30219;50.588;9.504;2022-10-31T08:48:38;13.50;99.90
44513;DHT22;30219;50.588;9.504;2022-10-31T08:51:04;13.50;99.90
44513;DHT22;30219;50.588;9.504;2022-10-31T08:53:29;13.40;99.90
44513;DHT22;30219;50.588;9.504;2022-10-31T08:55:56;13.30;99.90
44513;DHT22;30219;50.588;9.504;2022-10-31T08:58:22;13.30;99.90
44513;DHT22;30219;50.588;9.504;2022-10-31T09:00:50;13.30;99.90
44513;DHT22;30219;50.588;9.504;2022-10-31T09:03:18;13.30;99.90
44513;DHT22;30219;50.588;9.504;2022-10-31T09:05:45;13.40;99.90
44513;DHT22;30219;50.588;9.504;2022-10-31T09:08:11;13.80;99.90
44513;DHT22;30219;50.588;9.504;2022-10-31T09:10:37;14.40;99.90
44513;DHT22;30219;50.588;9.504;2022-10-31T09:13:10;14.90;99.90
44513;DHT22;30219;50.588;9.504;2022-10-31T09:15:36;15.10;99.90
44513;DHT22;30219;50.588;9.504;2022-10-31T09:18:07;15.40;99.90
44513;DHT22;30219;50.588;9.504;2022-10-31T09:20:34;15.50;99.90
44513;DHT22;30219;50.588;9.504;2022-10-31T09:23:02;15.20;99.90
44513;DHT22;30219;50.588;9.504;2022-10-31T09:25:29;14.90;99.90
44513;DHT22;30219;50.588;9.504;2022-10-31T09:27:58;14.70;99.90
44513;DHT22;30219;50.588;9.504;2022-10-31T09:30:26;14.70;99.90
44513;DHT22;30219;50.588;9.504;2022-10-31T09:32:56;14.30;99.90
44513;DHT22;30219;50.588;9.504;2022-10-31T09:35:22;14.10;99.90
44513;DHT22;30219;50.588;9.504;2022-10-31T09:37:57;14.00;99.90
44513;DHT22;30219;50.588;9.504;2022-10-31T09:40:34;14.20;99.90
44513;DHT22;30219;50.588;9.504;2022-10-31T09:45:36;13.90;99.90
44513;DHT22;30219;50.588;9.504;2022-10-31T09:51:06;13.90;99.90
44513;DHT22;30219;50.588;9.504;2022-10-31T09:53:39;13.90;99.90
44513;DHT22;30219;50.588;9.504;2022-10-31T09:56:14;13.90;99.90
44513;DHT22;30219;50.588;9.504;2022-10-31T09:58:43;14.00;99.90
44513;DHT22;30219;50.588;9.504;2022-10-31T10:01:34;14.10;99.90
44513;DHT22;30219;50.588;9.504;2022-10-31T10:04:38;14.10;99.90
44513;DHT22;30219;50.588;9.504;2022-10-31T10:09:52;14.10;99.90
44513;DHT22;30219;50.588;9.504;2022-10-31T10:15:39;13.80;99.90
44513;DHT22;30219;50.588;9.504;2022-10-31T10:30:17;14.70;99.90
44513;DHT22;30219;50.588;9.504;2022-10-31T10:32:58;15.10;99.90
44513;DHT22;30219;50.588;9.504;2022-10-31T10:40:38;15.50;99.90
44513;DHT22;30219;50.588;9.504;2022-10-31T10:49:10;16.30;99.90
44513;DHT22;30219;50.588;9.504;2022-10-31T10:54:10;16.70;99.90
44513;DHT22;30219;50.588;9.504;2022-10-31T10:59:21;17.60;99.90
44513;DHT22;30219;50.588;9.504;2022-10-31T11:01:49;18.00;99.90
44513;DHT22;30219;50.588;9.504;2022-10-31T11:04:32;18.20;99.90
44513;DHT22;30219;50.588;9.504;2022-10-31T11:07:03;18.50;99.90
44513;DHT22;30219;50.588;9.504;2022-10-31T11:09:29;18.50;99.90
44513;DHT22;30219;50.588;9.504;2022-10-31T11:11:55;18.70;99.90
44513;DHT22;30219;50.588;9.504;2022-10-31T11:14:22;18.90;99.90
44513;DHT22;30219;50.588;9.504;2022-10-31T11:17:07;19.10;99.90
44513;DHT22;30219;50.588;9.504;2022-10-31T11:19:34;19.30;99.90
44513;DHT22;30219;50.588;9.504;2022-10-31T11:22:07;19.50;99.90
44513;DHT22;30219;50.588;9.504;2022-10-31T11:24:39;19.60;99.90
44513;DHT22;30219;50.588;9.504;2022-10-31T11:27:19;19.50;99.90
44513;DHT22;30219;50.588;9.504;2022-10-31T11:29:45;19.60;99.90
44513;DHT22;30219;50.588;9.504;2022-10-31T11:32:21;19.60;99.90
44513;DHT22;30219;50.588;9.504;2022-10-31T11:34:51;19.60;99.90
44513;DHT22;30219;50.588;9.504;2022-10-31T11:37:22;19.50;99.90
44513;DHT22;30219;50.588;9.504;2022-10-31T11:39:54;19.60;99.90
44513;DHT22;30219;50.588;9.504;2022-10-31T11:42:21;19.60;99.90
44513;DHT22;30219;50.588;9.504;2022-10-31T11:44:47;19.60;99.90
44513;DHT22;30219;50.588;9.504;2022-10-31T11:47:16;19.60;99.90
44513;DHT22;30219;50.588;9.504;2022-10-31T11:49:44;19.60;99.90
44513;DHT22;30219;50.588;9.504;2022-10-31T11:52:26;19.50;99.90
44513;DHT22;30219;50.588;9.504;2022-10-31T11:55:01;19.40;99.90
44513;DHT22;30219;50.588;9.504;2022-10-31T11:57:29;19.40;99.90
44513;DHT22;30219;50.588;9.504;2022-10-31T11:59:59;19.30;99.90
44513;DHT22;30219;50.588;9.504;2022-10-31T12:02:25;19.30;99.90
44513;DHT22;30219;50.588;9.504;2022-10-31T12:04:58;19.20;99.90
44513;DHT22;30219;50.588;9.504;2022-10-31T12:07:25;19.40;99.90
44513;DHT22;30219;50.588;9.504;2022-10-31T12:09:51;19.40;99.90
44513;DHT22;30219;50.588;9.504;2022-10-31T12:12:49;19.20;99.90
44513;DHT22;30219;50.588;9.504;2022-10-31T12:18:16;19.10;99.90
44513;DHT22;30219;50.588;9.504;2022-10-31T12:29:36;18.60;99.90
44513;DHT22;30219;50.588;9.504;2022-10-31T12:32:27;18.50;99.90
44513;DHT22;30219;50.588;9.504;2022-10-31T12:40:37;18.50;99.90
44513;DHT22;30219;50.588;9.504;2022-10-31T12:46:00;18.70;99.90
44513;DHT22;30219;50.588;9.504;2022-10-31T12:59:38;18.10;99.90
44513;DHT22;30219;50.588;9.504;2022-10-31T13:02:29;18.20;99.90
44513;DHT22;30219;50.588;9.504;2022-10-31T13:08:03;18.30;99.90
44513;DHT22;30219;50.588;9.504;2022-10-31T13:10:40;18.40;99.90
44513;DHT22;30219;50.588;9.504;2022-10-31T13:13:19;18.50;99.90
44513;DHT22;30219;50.588;9.504;2022-10-31T13:15:58;18.50;99.90
44513;DHT22;30219;50.588;9.504;2022-10-31T13:18:36;18.60;99.90
44513;DHT22;30219;50.588;9.504;2022-10-31T13:21:10;18.60;99.90
44513;DHT22;30219;50.588;9.504;2022-10-31T13:23:39;18.70;99.90
44513;DHT22;30219;50.588;9.504;2022-10-31T13:26:40;18.70;99.90
44513;DHT22;30219;50.588;9.504;2022-10-31T13:29:32;18.80;99.90
44513;DHT22;30219;50.588;9.504;2022-10-31T13:32:03;18.70;99.90
44513;DHT22;30219;50.588;9.504;2022-10-31T13:34:51;18.80;99.90
44513;DHT22;30219;50.588;9.504;2022-10-31T13:37:38;18.80;99.90
44513;DHT22;30219;50.588;9.504;2022-10-31T13:45:20;18.70;99.90
44513;DHT22;30219;50.588;9.504;2022-10-31T13:48:19;18.70;99.90
44513;DHT22;30219;50.588;9.504;2022-10-31T13:51:03;18.70;99.90
44513;DHT22;30219;50.588;9.504;2022-10-31T13:56:30;18.80;99.90
44513;DHT22;30219;50.588;9.504;2022-10-31T13:59:04;18.70;99.90
44513;DHT22;30219;50.588;9.504;2022-10-31T14:01:31;18.70;99.90
44513;DHT22;30219;50.588;9.504;2022-10-31T14:06:38;18.40;99.90
44513;DHT22;30219;50.588;9.504;2022-10-31T14:09:04;18.30;99.90
44513;DHT22;30219;50.588;9.504;2022-10-31T14:11:30;18.30;99.90
44513;DHT22;30219;50.588;9.504;2022-10-31T14:13:57;18.30;99.90
44513;DHT22;30219;50.588;9.504;2022-10-31T14:16:26;18.20;99.90
44513;DHT22;30219;50.588;9.504;2022-10-31T14:19:06;17.90;99.90
44513;DHT22;30219;50.588;9.504;2022-10-31T14:21:44;17.60;99.90
44513;DHT22;30219;50.588;9.504;2022-10-31T14:26:55;17.60;99.90
44513;DHT22;30219;50.588;9.504;2022-10-31T14:29:29;17.70;99.90
44513;DHT22;30219;50.588;9.504;2022-10-31T14:31:56;17.70;99.90
44513;DHT22;30219;50.588;9.504;2022-10-31T14:34:43;17.60;99.90
44513;DHT22;30219;50.588;9.504;2022-10-31T14:37:38;17.50;99.90
44513;DHT22;30219;50.588;9.504;2022-10-31T14:51:22;17.40;99.90
44513;DHT22;30219;50.588;9.504;2022-10-31T14:53:49;17.30;99.90
44513;DHT22;30219;50.588;9.504;2022-10-31T14:56:27;17.20;99.90
44513;DHT22;30219;50.588;9.504;2022-10-31T14:58:55;17.20;99.90
44513;DHT22;30219;50.588;9.504;2022-10-31T15:01:34;17.20;99.90
44513;DHT22;30219;50.588;9.504;2022-10-31T15:06:44;16.80;99.90
44513;DHT22;30219;50.588;9.504;2022-10-31T15:09:26;16.40;99.90
44513;DHT22;30219;50.588;9.504;2022-10-31T15:11:52;16.30;99.90
44513;DHT22;30219;50.588;9.504;2022-10-31T15:14:25;16.30;99.90
44513;DHT22;30219;50.588;9.504;2022-10-31T15:16:51;16.30;99.90
44513;DHT22;30219;50.588;9.504;2022-10-31T15:19:24;16.40;99.90
44513;DHT22;30219;50.588;9.504;2022-10-31T15:21:52;16.50;99.90
44513;DHT22;30219;50.588;9.504;2022-10-31T15:24:18;16.40;99.90
44513;DHT22;30219;50.588;9.504;2022-10-31T15:26:46;16.40;99.90
44513;DHT22;30219;50.588;9.504;2022-10-31T15:29:17;16.50;99.90
44513;DHT22;30219;50.588;9.504;2022-10-31T15:32:09;16.40;99.90
44513;DHT22;30219;50.588;9.504;2022-10-31T15:34:42;16.20;99.90
44513;DHT22;30219;50.588;9.504;2022-10-31T15:37:13;16.10;99.90
44513;DHT22;30219;50.588;9.504;2022-10-31T15:39:40;16.10;99.90
44513;DHT22;30219;50.588;9.504;2022-10-31T15:42:24;16.00;99.90
44513;DHT22;30219;50.588;9.504;2022-10-31T15:47:36;15.90;99.90
44513;DHT22;30219;50.588;9.504;2022-10-31T15:50:04;15.90;99.90
44513;DHT22;30219;50.588;9.504;2022-10-31T15:52:43;15.70;99.90
44513;DHT22;30219;50.588;9.504;2022-10-31T15:57:40;15.40;99.90
44513;DHT22;30219;50.588;9.504;2022-10-31T16:00:20;15.40;99.90
44513;DHT22;30219;50.588;9.504;2022-10-31T16:02:46;15.40;99.90
44513;DHT22;30219;50.588;9.504;2022-10-31T16:05:17;15.40;99.90
44513;DHT22;30219;50.588;9.504;2022-10-31T16:07:50;15.40;99.90
44513;DHT22;30219;50.588;9.504;2022-10-31T16:10:25;15.50;99.90
44513;DHT22;30219;50.588;9.504;2022-10-31T16:12:51;15.40;99.90
44513;DHT22;30219;50.588;9.504;2022-10-31T16:15:19;15.20;99.90
44513;DHT22;30219;50.588;9.504;2022-10-31T16:17:47;15.20;99.90
44513;DHT22;30219;50.588;9.504;2022-10-31T16:20:27;15.20;99.90
44513;DHT22;30219;50.588;9.504;2022-10-31T16:22:55;15.20;99.90
44513;DHT22;30219;50.588;9.504;2022-10-31T16:25:36;15.20;99.90
44513;DHT22;30219;50.588;9.504;2022-10-31T16:28:05;15.20;99.90
44513;DHT22;30219;50.588;9.504;2022-10-31T16:30:52;15.10;99.90
44513;DHT22;30219;50.588;9.504;2022-10-31T16:33:25;14.80;99.90
44513;DHT22;30219;50.588;9.504;2022-10-31T16:35:52;14.60;99.90
44513;DHT22;30219;50.588;9.504;2022-10-31T16:38:18;14.60;99.90
44513;DHT22;30219;50.588;9.504;2022-10-31T16:40:44;14.70;99.90
44513;DHT22;30219;50.588;9.504;2022-10-31T16:43:14;14.70;99.90
44513;DHT22;30219;50.588;9.504;2022-10-31T16:45:44;14.70;99.90
44513;DHT22;30219;50.588;9.504;2022-10-31T16:48:13;14.70;99.90
44513;DHT22;30219;50.588;9.504;2022-10-31T16:50:41;14.70;99.90
44513;DHT22;30219;50.588;9.504;2022-10-31T16:53:08;14.50;99.90
44513;DHT22;30219;50.588;9.504;2022-10-31T16:55:33;14.30;99.90
44513;DHT22;30219;50.588;9.504;2022-10-31T16:58:01;14.40;99.90
44513;DHT22;30219;50.588;9.504;2022-10-31T17:00:27;14.20;99.90
44513;DHT22;30219;50.588;9.504;2022-10-31T17:02:55;14.20;99.90
44513;DHT22;30219;50.588;9.504;2022-10-31T17:05:23;14.10;99.90
44513;DHT22;30219;50.588;9.504;2022-10-31T17:07:55;14.00;99.90
44513;DHT22;30219;50.588;9.504;2022-10-31T17:10:21;13.90;99.90
44513;DHT22;30219;50.588;9.504;2022-10-31T17:12:49;13.90;99.90
44513;DHT22;30219;50.588;9.504;2022-10-31T17:15:28;13.70;99.90
44513;DHT22;30219;50.588;9.504;2022-10-31T17:17:57;13.60;99.90
44513;DHT22;30219;50.588;9.504;2022-10-31T17:20:27;13.60;99.90
44513;DHT22;30219;50.588;9.504;2022-10-31T17:22:53;13.60;99.90
44513;DHT22;30219;50.588;9.504;2022-10-31T17:25:22;13.70;99.90
44513;DHT22;30219;50.588;9.504;2022-10-31T17:27:48;13.70;99.90
44513;DHT22;30219;50.588;9.504;2022-10-31T17:30:15;13.50;99.90
44513;DHT22;30219;50.588;9.504;2022-10-31T17:32:43;13.30;99.90
44513;DHT22;30219;50.588;9.504;2022-10-31T17:35:10;13.20;99.90
44513;DHT22;30219;50.588;9.504;2022-10-31T17:37:37;13.20;99.90
44513;DHT22;30219;50.588;9.504;2022-10-31T17:40:03;13.30;99.90
44513;DHT22;30219;50.588;9.504;2022-10-31T17:42:28;13.50;99.90
44513;DHT22;30219;50.588;9.504;2022-10-31T17:44:54;13.50;99.90
44513;DHT22;30219;50.588;9.504;2022-10-31T17:47:20;13.50;99.90
44513;DHT22;30219;50.588;9.504;2022-10-31T17:49:45;13.50;99.90
44513;DHT22;30219;50.588;9.504;2022-10-31T17:52:11;13.40;99.90
44513;DHT22;30219;50.588;9.504;2022-10-31T17:54:36;13.30;99.90
44513;DHT22;30219;50.588;9.504;2022-10-31T17:57:02;13.30;99.90
44513;DHT22;30219;50.588;9.504;2022-10-31T17:59:28;13.30;99.90
44513;DHT22;30219;50.588;9.504;2022-10-31T18:01:55;13.40;99.90